Time;durP1;ratioP1;P1;durP2;ratioP2;P2;SDS_P1;SDS_P2;PMS_P1;PMS_P2;Temp;Humidity;BMP_temperature;BMP_pressure;BME280_temperature;BME280_humidity;BME280_pressure;Samples;Min_cycle;Max_cycle;Signal;HPM_P1;HPM_P2
2021/04/05 00:00:13;;;;;;;18.30;14.00;;;;;;;2.96;69.55;100279.86;1719879;81;21141;-40
2021/04/05 00:02:41;;;;;;;21.80;14.58;;;;;;;2.99;69.57;100276.27;1724417;81;21177;-40
2021/04/05 00:05:20;;;;;;;20.92;13.98;;;;;;;2.99;69.61;100269.22;1723246;81;21355;-42
2021/04/05 00:07:50;;;;;;;20.25;14.58;;;;;;;3.01;69.61;100270.50;1723731;81;21179;-40
2021/04/05 00:10:34;;;;;;;22.50;14.98;;;;;;;3.02;69.50;100273.53;1712301;81;21186;-43
2021/04/05 00:13:06;;;;;;;20.02;15.23;;;;;;;3.01;69.45;100273.14;1708574;81;21140;-44
2021/04/05 00:15:41;;;;;;;25.95;18.40;;;;;;;3.05;69.43;100272.15;1801452;78;23096;-43
2021/04/05 00:18:08;;;;;;;23.02;16.40;;;;;;;2.99;69.38;100276.27;1771866;80;21757;-39
2021/04/05 00:20:48;;;;;;;18.95;13.68;;;;;;;2.96;69.40;100272.42;1737778;81;21110;-39
2021/04/05 00:23:16;;;;;;;23.52;13.22;;;;;;;2.93;69.46;100266.78;1709897;82;21751;-41
2021/04/05 00:25:43;;;;;;;18.32;13.70;;;;;;;2.91;69.49;100268.60;1718392;81;21194;-39
2021/04/05 00:28:11;;;;;;;18.27;14.98;;;;;;;2.91;69.47;100259.84;1710556;82;21163;-39
2021/04/05 00:30:42;;;;;;;20.35;14.50;;;;;;;2.90;69.45;100262.05;1718546;81;21173;-41
2021/04/05 00:33:10;;;;;;;15.72;11.95;;;;;;;2.90;69.55;100254.14;1708805;82;21166;-39
2021/04/05 00:35:39;;;;;;;18.37;12.82;;;;;;;2.90;69.65;100254.14;1732298;81;21150;-39
2021/04/05 00:38:09;;;;;;;18.57;13.15;;;;;;;2.90;69.55;100252.83;1723867;82;21688;-39
2021/04/05 00:40:51;;;;;;;20.85;14.65;;;;;;;2.88;69.45;100248.09;1719535;82;21166;-39
2021/04/05 00:43:19;;;;;;;21.85;14.85;;;;;;;2.85;69.43;100249.05;1707718;82;21214;-40
2021/04/05 00:45:48;;;;;;;21.87;15.43;;;;;;;2.85;69.62;100248.16;1696558;82;22234;-41
2021/04/05 00:48:16;;;;;;;21.90;15.80;;;;;;;2.83;69.75;100245.59;1694852;82;21198;-41
2021/04/05 00:50:54;;;;;;;20.92;14.03;;;;;;;2.84;69.81;100249.94;1700380;82;21181;-40
2021/04/05 00:53:34;;;;;;;19.70;14.90;;;;;;;2.84;69.86;100246.45;1697422;82;21518;-40
2021/04/05 00:56:02;;;;;;;21.23;15.45;;;;;;;2.84;69.81;100242.03;1700400;82;21146;-41
2021/04/05 00:58:32;;;;;;;21.73;15.13;;;;;;;2.83;69.77;100236.37;1691399;83;21207;-41
2021/04/05 01:01:03;;;;;;;24.50;15.25;;;;;;;2.82;69.87;100246.48;1696031;82;21176;-40
2021/04/05 01:03:32;;;;;;;18.82;13.60;;;;;;;2.81;69.82;100237.72;1686356;83;21438;-40
2021/04/05 01:06:11;;;;;;;21.73;14.75;;;;;;;2.78;69.55;100244.41;1699519;82;21185;-40
2021/04/05 01:08:39;;;;;;;20.57;14.28;;;;;;;2.71;69.44;100239.37;1696401;82;21173;-39
2021/04/05 01:11:10;;;;;;;21.42;15.23;;;;;;;2.65;69.39;100238.25;1697039;82;21178;-41
2021/04/05 01:13:37;;;;;;;20.62;14.50;;;;;;;2.60;69.51;100237.06;1691180;83;21205;-38
2021/04/05 01:16:06;;;;;;;20.45;14.45;;;;;;;2.59;69.65;100232.22;1665071;84;21172;-39
2021/04/05 01:18:34;;;;;;;19.48;15.78;;;;;;;2.60;69.70;100240.55;1678801;83;21210;-40
2021/04/05 01:21:03;;;;;;;19.55;15.05;;;;;;;2.60;69.71;100242.33;1728689;81;21136;-44
2021/04/05 01:23:31;;;;;;;19.10;14.05;;;;;;;2.60;69.80;100236.60;1688265;82;21161;-42
2021/04/05 01:25:59;;;;;;;20.60;14.35;;;;;;;2.62;69.84;100239.20;1724923;81;21131;-42
2021/04/05 01:28:26;;;;;;;23.38;14.90;;;;;;;2.61;69.94;100229.56;1721819;81;21146;-43
2021/04/05 01:30:56;;;;;;;21.62;15.10;;;;;;;2.63;70.06;100235.65;1683228;82;21681;-42
2021/04/05 01:33:30;;;;;;;22.85;14.58;;;;;;;2.64;70.15;100236.05;1662527;84;21174;-42
2021/04/05 01:36:02;;;;;;;19.95;12.98;;;;;;;2.63;70.16;100229.06;1728052;81;21107;-42
2021/04/05 01:38:40;;;;;;;18.32;13.40;;;;;;;2.64;70.18;100236.50;1725350;81;21134;-42
2021/04/05 01:41:11;;;;;;;18.55;13.78;;;;;;;2.62;70.20;100235.68;1726774;81;21142;-42
2021/04/05 01:43:39;;;;;;;18.30;13.13;;;;;;;2.59;70.27;100234.00;1688326;82;21170;-42
2021/04/05 01:46:09;;;;;;;18.75;13.70;;;;;;;2.59;70.21;100232.69;1720644;81;21122;-42
2021/04/05 01:48:37;;;;;;;19.20;12.88;;;;;;;2.59;70.22;100236.17;1716714;81;21458;-42
2021/04/05 01:51:15;;;;;;;18.77;12.55;;;;;;;2.59;70.30;100231.38;1724777;81;21135;-40
2021/04/05 01:53:43;;;;;;;17.02;12.35;;;;;;;2.59;70.37;100223.01;1725559;81;21142;-40
2021/04/05 01:56:13;;;;;;;19.50;13.95;;;;;;;2.60;70.38;100222.58;1658155;84;21457;-41
2021/04/05 01:58:45;;;;;;;16.57;12.33;;;;;;;2.61;70.33;100219.03;1726636;81;21137;-39
2021/04/05 02:01:19;;;;;;;17.02;13.30;;;;;;;2.59;70.31;100216.43;1658254;84;21162;-40
2021/04/05 02:03:46;;;;;;;18.82;13.85;;;;;;;2.58;70.23;100220.44;1728828;81;21142;-41
2021/04/05 02:06:28;;;;;;;16.17;12.55;;;;;;;2.58;70.24;100219.13;1731430;81;21179;-40
2021/04/05 02:09:22;;;;;;;18.10;12.75;;;;;;;2.58;70.34;100210.77;1799882;78;22922;-40
2021/04/05 02:11:50;;;;;;;17.52;12.70;;;;;;;2.54;70.29;100207.80;1718619;81;21931;-39
2021/04/05 02:14:17;;;;;;;16.25;12.73;;;;;;;2.54;70.25;100214.39;1718284;82;21150;-40
2021/04/05 02:16:45;;;;;;;16.62;12.53;;;;;;;2.53;70.14;100207.88;1722422;81;21152;-39
2021/04/05 02:19:15;;;;;;;17.98;12.93;;;;;;;2.52;70.01;100211.39;1736306;81;21148;-40
2021/04/05 02:21:46;;;;;;;16.48;12.35;;;;;;;2.50;69.97;100211.45;1709038;81;21172;-39
2021/04/05 02:24:14;;;;;;;16.45;12.03;;;;;;;2.49;69.90;100208.39;1723887;81;21598;-40
2021/04/05 02:26:42;;;;;;;17.77;13.78;;;;;;;2.49;69.88;100206.23;1707812;83;21154;-41
2021/04/05 02:29:09;;;;;;;16.93;14.03;;;;;;;2.49;69.87;100202.27;1660488;83;21161;-41
2021/04/05 02:31:37;;;;;;;18.73;13.60;;;;;;;2.47;69.80;100199.70;1724674;81;21814;-41
2021/04/05 02:34:06;;;;;;;15.45;12.43;;;;;;;2.45;69.78;100196.72;1692965;82;21159;-39
2021/04/05 02:36:39;;;;;;;19.67;13.50;;;;;;;2.45;69.78;100201.52;1715562;81;21157;-40
2021/04/05 02:39:09;;;;;;;19.37;14.70;;;;;;;2.43;69.69;100201.16;1725898;81;21146;-40
2021/04/05 02:41:43;;;;;;;18.80;14.73;;;;;;;2.41;69.67;100201.64;1741367;81;21922;-43
2021/04/05 02:44:11;;;;;;;18.32;13.18;;;;;;;2.36;69.67;100205.27;1713423;81;21169;-45
2021/04/05 02:46:40;;;;;;;19.65;14.38;;;;;;;2.33;69.75;100205.36;1717499;82;21200;-38
2021/04/05 02:49:12;;;;;;;24.07;15.23;;;;;;;2.31;69.80;100206.31;1712605;82;21158;-41
2021/04/05 02:51:46;;;;;;;24.27;14.70;;;;;;;2.28;69.81;100195.88;1712011;82;21195;-42
2021/04/05 02:54:17;;;;;;;30.97;18.42;;;;;;;2.27;69.80;100202.92;1717397;82;21196;-40
2021/04/05 02:56:44;;;;;;;25.10;17.57;;;;;;;2.26;69.87;100193.73;1693270;81;21176;-41
2021/04/05 02:59:17;;;;;;;28.05;19.17;;;;;;;2.26;69.86;100188.02;1726319;81;21605;-39
2021/04/05 03:01:45;;;;;;;25.20;17.15;;;;;;;2.27;69.85;100192.39;1689522;82;21168;-39
2021/04/05 03:04:13;;;;;;;23.52;15.90;;;;;;;2.28;69.85;100194.10;1716637;81;21161;-39
2021/04/05 03:06:41;;;;;;;22.00;15.58;;;;;;;2.29;69.81;100194.96;1713756;81;21262;-39
2021/04/05 03:09:08;;;;;;;17.90;13.68;;;;;;;2.30;69.79;100194.93;1743316;81;21189;-40
2021/04/05 03:11:37;;;;;;;19.95;16.05;;;;;;;2.28;69.62;100194.56;1746103;81;21157;-40
2021/04/05 03:14:07;;;;;;;18.35;13.85;;;;;;;2.24;69.58;100188.51;1744241;81;21152;-44
2021/04/05 03:16:38;;;;;;;24.47;14.68;;;;;;;2.21;69.65;100193.86;1692912;82;21123;-43
2021/04/05 03:19:06;;;;;;;20.08;13.70;;;;;;;2.20;69.73;100200.05;1715379;82;21636;-43
2021/04/05 03:21:33;;;;;;;18.60;14.53;;;;;;;2.21;69.65;100200.45;1693204;83;21218;-43
2021/04/05 03:24:02;;;;;;;20.30;16.37;;;;;;;2.19;69.61;100191.72;1722716;82;21181;-41
2021/04/05 03:26:30;;;;;;;22.45;16.23;;;;;;;2.20;69.59;100189.98;1743891;80;21157;-39
2021/04/05 03:28:57;;;;;;;18.67;13.45;;;;;;;2.20;69.56;100182.94;1718167;82;21180;-42
2021/04/05 03:31:26;;;;;;;21.60;14.73;;;;;;;2.21;69.47;100179.39;1693474;81;21616;-40
2021/04/05 03:34:05;;;;;;;22.42;15.25;;;;;;;2.24;69.41;100173.18;1707443;83;21161;-41
2021/04/05 03:36:46;;;;;;;17.82;14.60;;;;;;;2.22;69.35;100169.30;1699744;82;21636;-41
2021/04/05 03:39:15;;;;;;;20.92;13.93;;;;;;;2.25;69.26;100171.83;1736814;81;21576;-40
2021/04/05 03:42:11;;;;;;;23.00;17.25;;;;;;;2.26;69.19;100169.59;1738040;80;21195;-41
2021/04/05 03:45:09;;;;;;;20.92;16.55;;;;;;;2.25;69.14;100164.40;1690440;83;21149;-44
2021/04/05 03:48:08;;;;;;;22.00;16.30;;;;;;;2.24;69.13;100159.56;1702884;82;21217;-41
2021/04/05 03:51:07;;;;;;;24.77;17.07;;;;;;;2.25;69.04;100170.52;1708034;81;21145;-43
2021/04/05 03:54:03;;;;;;;18.00;15.80;;;;;;;2.23;69.01;100167.52;1714371;81;21201;-40
2021/04/05 03:56:40;;;;;;;26.23;17.60;;;;;;;2.22;68.98;100160.52;1721905;81;21142;-44
2021/04/05 03:59:12;;;;;;;21.55;15.75;;;;;;;2.21;69.03;100163.61;1713224;81;21689;-43
2021/04/05 04:01:45;;;;;;;23.73;16.17;;;;;;;2.21;69.16;100167.55;1700384;83;21192;-45
2021/04/05 04:04:23;;;;;;;22.98;15.68;;;;;;;2.21;69.25;100164.92;1722526;82;21158;-42
2021/04/05 04:09:16;;;;;;;27.50;19.20;;;;;;;2.22;69.41;100163.14;1703181;82;21493;-43
2021/04/05 04:11:47;;;;;;;30.32;20.62;;;;;;;2.19;69.53;100162.78;1718338;81;21188;-41
2021/04/05 04:14:14;;;;;;;27.80;18.55;;;;;;;2.17;69.70;100163.30;1693030;82;21161;-44
2021/04/05 04:16:44;;;;;;;28.17;18.05;;;;;;;2.13;69.88;100163.83;1714293;82;21510;-44
2021/04/05 04:19:12;;;;;;;25.20;16.73;;;;;;;2.13;70.07;100161.20;1691082;82;21160;-45
2021/04/05 04:21:40;;;;;;;23.60;15.38;;;;;;;2.14;70.13;100153.73;1720103;81;21197;-43
2021/04/05 04:24:09;;;;;;;20.62;14.03;;;;;;;2.15;70.15;100154.12;1712803;82;21597;-42
2021/04/05 04:26:37;;;;;;;21.97;12.15;;;;;;;2.18;70.19;100155.81;1714201;81;21117;-40
2021/04/05 04:29:05;;;;;;;18.15;13.22;;;;;;;2.17;70.31;100156.73;1706064;82;22017;-44
2021/04/05 04:31:32;;;;;;;18.30;13.93;;;;;;;2.18;70.41;100150.55;1708545;82;21747;-45
2021/04/05 04:34:01;;;;;;;17.07;11.97;;;;;;;2.17;70.53;100154.09;1709074;81;21188;-42
2021/04/05 04:36:28;;;;;;;18.62;12.15;;;;;;;2.18;70.75;100149.23;1716928;81;21172;-46
2021/04/05 04:38:56;;;;;;;17.05;11.30;;;;;;;2.19;70.89;100144.36;1715610;82;21209;-44
2021/04/05 04:41:29;;;;;;;17.42;11.45;;;;;;;2.23;70.97;100139.89;1715832;82;21656;-45
2021/04/05 04:44:01;;;;;;;19.42;11.95;;;;;;;2.26;71.03;100146.38;1728814;81;21207;-45
2021/04/05 04:46:29;;;;;;;22.70;14.40;;;;;;;2.28;71.19;100143.25;1728515;81;21599;-43
2021/04/05 04:49:01;;;;;;;25.08;15.23;;;;;;;2.33;71.39;100141.34;1709452;83;21229;-42
2021/04/05 04:51:29;;;;;;;26.40;15.88;;;;;;;2.37;71.57;100137.27;1725724;81;21156;-41
2021/04/05 04:53:58;;;;;;;23.40;13.78;;;;;;;2.41;71.69;100135.38;1712044;82;21149;-44
2021/04/05 04:56:27;;;;;;;19.90;13.40;;;;;;;2.45;71.75;100128.27;1709177;81;21581;-45
2021/04/05 04:59:05;;;;;;;18.73;12.93;;;;;;;2.50;71.85;100122.41;1724797;82;21149;-41
2021/04/05 05:01:58;;;;;;;15.78;10.48;;;;;;;2.61;71.97;100117.66;1792562;78;22955;-40
2021/04/05 05:04:27;;;;;;;17.80;11.18;;;;;;;2.65;72.08;100121.08;1770416;80;21119;-43
2021/04/05 05:06:58;;;;;;;16.25;10.82;;;;;;;2.69;72.12;100120.05;1774767;79;21164;-41
2021/04/05 05:09:26;;;;;;;14.00;9.45;;;;;;;2.75;72.14;100114.14;1773035;80;21168;-42
2021/04/05 05:11:54;;;;;;;15.32;9.83;;;;;;;2.83;72.07;100115.21;1761569;80;21172;-42
2021/04/05 05:14:21;;;;;;;12.45;9.30;;;;;;;2.87;71.96;100107.59;1769086;79;21180;-43
2021/04/05 05:16:49;;;;;;;15.58;10.18;;;;;;;2.95;71.93;100107.38;1763784;80;21116;-46
2021/04/05 05:19:17;;;;;;;11.95;8.98;;;;;;;3.03;72.05;100114.56;1772686;79;21129;-47
2021/04/05 05:21:49;;;;;;;12.65;9.15;;;;;;;3.09;72.10;100114.80;1758873;79;21181;-41
2021/04/05 05:24:21;;;;;;;13.15;8.58;;;;;;;3.17;72.19;100113.62;1714279;81;21774;-43
2021/04/05 05:26:49;;;;;;;12.75;8.53;;;;;;;3.25;71.99;100113.36;1691839;81;21180;-42
2021/04/05 05:29:21;;;;;;;13.15;8.40;;;;;;;3.32;71.69;100110.06;1733888;81;21197;-43
2021/04/05 05:31:49;;;;;;;13.00;7.85;;;;;;;3.37;71.28;100106.81;1737258;81;21545;-44
2021/04/05 05:34:21;;;;;;;13.10;8.53;;;;;;;3.41;71.29;100110.61;1733500;81;21152;-43
2021/04/05 05:36:50;;;;;;;12.53;8.88;;;;;;;3.46;71.21;100113.09;1725714;81;21203;-42
2021/04/05 05:39:18;;;;;;;14.65;9.95;;;;;;;3.53;71.00;100111.09;1733481;81;21174;-47
2021/04/05 05:42:11;;;;;;;13.78;9.28;;;;;;;3.53;70.93;100102.74;1740381;81;21593;-44
2021/04/05 05:44:52;;;;;;;10.58;7.25;;;;;;;3.57;71.17;100106.12;1693320;81;21184;-46
2021/04/05 05:48:16;;;;;;;10.23;8.03;;;;;;;3.69;71.32;100095.13;1875529;74;27858;-43
2021/04/05 05:51:13;;;;;;;8.60;6.67;;;;;;;3.74;71.34;100097.61;1867966;75;21157;-45
2021/04/05 05:54:05;;;;;;;9.43;6.90;;;;;;;3.86;70.71;100092.74;1860811;75;21619;-44
2021/04/05 05:56:50;;;;;;;10.55;6.45;;;;;;;4.00;70.57;100090.04;1770854;78;22933;-44
2021/04/05 05:59:31;;;;;;;9.28;6.62;;;;;;;4.04;70.53;100089.02;1742694;80;21399;-44
2021/04/05 06:03:02;;;;;;;11.70;8.48;;;;;;;4.17;70.15;100077.53;1782371;78;28157;-45
2021/04/05 06:05:43;;;;;;;8.55;6.58;;;;;;;4.21;69.73;100075.16;1650962;84;21251;-46
2021/04/05 06:08:26;;;;;;;10.55;6.58;;;;;;;4.32;69.16;100079.58;1660274;84;21240;-42
2021/04/05 06:11:23;;;;;;;10.38;6.55;;;;;;;4.44;68.58;100070.33;1790484;78;23252;-43
2021/04/05 06:14:05;;;;;;;8.73;6.25;;;;;;;4.48;68.66;100071.91;1759669;80;21129;-42
2021/04/05 06:16:39;;;;;;;9.40;6.55;;;;;;;4.58;68.52;100077.69;1763153;79;21161;-44
2021/04/05 06:19:34;;;;;;;10.98;6.25;;;;;;;4.66;68.36;100073.83;1771872;80;21226;-43
2021/04/05 06:22:22;;;;;;;10.23;6.85;;;;;;;4.79;68.38;100074.19;1769011;79;21159;-44
2021/04/05 06:25:05;;;;;;;7.92;5.37;;;;;;;4.93;68.41;100069.17;1731640;81;21185;-42
2021/04/05 06:27:53;;;;;;;7.05;5.33;;;;;;;5.08;68.40;100070.31;1704261;82;22177;-42
2021/04/05 06:31:01;;;;;;;7.95;5.03;;;;;;;5.21;67.52;100064.03;1722466;81;21906;-44
2021/04/05 06:33:59;;;;;;;8.05;5.35;;;;;;;5.32;66.69;100063.13;1681013;82;21164;-42
2021/04/05 06:37:25;;;;;;;8.28;6.28;;;;;;;5.55;66.08;100061.27;1825862;77;23529;-43
2021/04/05 06:40:01;;;;;;;8.30;5.37;;;;;;;5.59;65.29;100053.13;1811045;78;21227;-47
2021/04/05 06:43:14;;;;;;;7.72;5.78;;;;;;;5.70;64.80;100055.29;1803456;78;21157;-46
2021/04/05 06:46:00;;;;;;;7.00;4.72;;;;;;;5.78;64.62;100052.30;1769977;79;21109;-42
2021/04/05 06:48:44;;;;;;;6.67;4.20;;;;;;;5.90;64.00;100060.15;1774402;79;21144;-44
2021/04/05 06:51:27;;;;;;;5.28;3.95;;;;;;;5.96;62.90;100056.77;1773235;80;21721;-45
2021/04/05 06:54:26;;;;;;;8.10;4.70;;;;;;;6.03;61.04;100050.27;1785143;80;21306;-43
2021/04/05 06:57:12;;;;;;;6.83;4.65;;;;;;;6.09;60.06;100040.32;1774457;80;21133;-38
2021/04/05 07:00:03;;;;;;;7.12;4.95;;;;;;;6.14;59.18;100048.91;1777934;79;21145;-43
2021/04/05 07:03:14;;;;;;;7.00;4.42;;;;;;;6.21;59.20;100051.66;1779312;80;21666;-42
2021/04/05 07:06:22;;;;;;;6.80;4.70;;;;;;;6.31;59.42;100048.12;1747183;80;21204;-41
2021/04/05 07:09:25;;;;;;;6.87;3.50;;;;;;;6.43;58.82;100043.09;1770212;80;21207;-51
2021/04/05 07:12:34;;;;;;;6.58;3.77;;;;;;;6.57;58.38;100046.85;1776150;80;21152;-42
2021/04/05 07:15:25;;;;;;;5.22;3.75;;;;;;;6.68;57.92;100045.41;1711644;82;21230;-46
2021/04/05 07:18:42;;;;;;;6.78;4.62;;;;;;;6.80;57.37;100040.41;1715399;81;21160;-47
2021/04/05 07:21:42;;;;;;;6.08;3.83;;;;;;;6.91;57.32;100044.73;1704018;82;21129;-42
2021/04/05 07:24:56;;;;;;;4.97;3.13;;;;;;;7.02;55.87;100036.23;1685783;82;21496;-44
2021/04/05 07:28:02;;;;;;;6.12;3.65;;;;;;;7.10;55.82;100027.41;1716735;81;21654;-44
2021/04/05 07:30:43;;;;;;;5.15;3.33;;;;;;;7.27;55.45;100012.81;1803331;78;23049;-45
2021/04/05 07:33:38;;;;;;;4.50;3.30;;;;;;;7.33;55.33;100023.56;1779118;79;21146;-44
2021/04/05 07:36:31;;;;;;;6.37;3.60;;;;;;;7.42;54.77;100009.83;1779213;80;21653;-44
2021/04/05 07:39:13;;;;;;;5.40;3.58;;;;;;;7.54;54.35;100003.88;1775110;79;21565;-44
2021/04/05 07:42:06;;;;;;;5.30;3.17;;;;;;;7.65;54.14;100003.28;1776297;80;21141;-46
2021/04/05 07:45:08;;;;;;;6.12;3.10;;;;;;;7.82;53.86;99997.55;1799857;78;22889;-44
2021/04/05 07:47:59;;;;;;;6.47;3.25;;;;;;;7.87;53.96;99993.70;1740866;80;21660;-44
2021/04/05 07:50:38;;;;;;;6.67;3.70;;;;;;;7.94;53.47;99989.77;1729696;81;21158;-44
2021/04/05 07:53:14;;;;;;;4.33;2.90;;;;;;;8.03;50.99;99987.05;1731802;81;21429;-43
2021/04/05 07:55:43;;;;;;;4.67;2.55;;;;;;;8.05;49.17;99985.66;1718675;81;21142;-44
2021/04/05 07:58:49;;;;;;;5.97;2.58;;;;;;;7.98;48.16;99974.03;1706823;83;21173;-39
2021/04/05 08:01:36;;;;;;;4.15;2.55;;;;;;;7.97;48.75;99975.47;1701170;82;21197;-44
2021/04/05 08:04:46;;;;;;;5.28;3.00;;;;;;;8.02;48.79;99968.09;1711051;81;21189;-43
2021/04/05 08:07:19;;;;;;;4.53;2.35;;;;;;;8.08;48.53;99974.86;1702594;82;21157;-43
2021/04/05 08:10:04;;;;;;;4.35;2.50;;;;;;;8.17;48.83;99964.58;1722747;81;21588;-44
2021/04/05 08:12:55;;;;;;;3.75;1.77;;;;;;;8.29;49.01;99956.84;1718512;81;21138;-44
2021/04/05 08:15:48;;;;;;;4.85;2.10;;;;;;;8.42;48.59;99956.09;1710912;82;21757;-45
2021/04/05 08:18:38;;;;;;;3.10;1.52;;;;;;;8.57;47.47;99950.84;1715493;82;21162;-40
2021/04/05 08:21:16;;;;;;;2.65;1.30;;;;;;;8.65;44.72;99940.13;1713885;82;21165;-45
2021/04/05 08:23:54;;;;;;;1.65;0.85;;;;;;;8.71;44.63;99936.72;1715584;82;21149;-43
2021/04/05 08:26:53;;;;;;;1.52;1.05;;;;;;;8.75;44.91;99936.94;1718640;82;21681;-45
2021/04/05 08:29:35;;;;;;;2.15;1.10;;;;;;;8.81;44.49;99925.92;1735773;80;21549;-44
2021/04/05 08:32:14;;;;;;;2.67;1.25;;;;;;;8.86;44.77;99920.70;1708406;82;21579;-42
2021/04/05 08:35:16;;;;;;;2.22;1.25;;;;;;;8.92;44.77;99921.28;1736968;81;21149;-46
2021/04/05 08:38:24;;;;;;;1.98;1.02;;;;;;;8.90;43.57;99909.91;1738613;81;21172;-44
2021/04/05 08:41:14;;;;;;;1.77;1.00;;;;;;;8.87;43.24;99905.15;1711991;81;21186;-45
2021/04/05 08:44:23;;;;;;;2.10;1.13;;;;;;;8.87;43.24;99905.15;1717552;82;21169;-44
2021/04/05 08:46:51;;;;;;;3.08;1.40;;;;;;;8.89;43.92;99905.03;1703521;82;21661;-45
2021/04/05 08:49:20;;;;;;;1.70;1.12;;;;;;;8.92;43.52;99906.66;1661247;83;21189;-43
2021/04/05 08:51:57;;;;;;;1.80;1.00;;;;;;;8.93;43.17;99891.09;1715066;83;21605;-44
2021/04/05 08:54:28;;;;;;;2.95;1.05;;;;;;;8.93;43.17;99891.09;1733513;81;21147;-47
2021/04/05 08:56:59;;;;;;;2.10;1.12;;;;;;;8.96;42.22;99892.23;1739166;81;21168;-44
2021/04/05 08:59:41;;;;;;;3.42;1.15;;;;;;;8.96;42.15;99881.60;1699756;83;21148;-41
2021/04/05 09:02:14;;;;;;;3.50;1.80;;;;;;;8.94;42.64;99872.85;1710430;82;21649;-41
2021/04/05 09:04:41;;;;;;;3.62;1.37;;;;;;;8.91;41.09;99861.08;1704023;83;22284;-42
2021/04/05 09:07:36;;;;;;;1.82;1.07;;;;;;;8.91;41.09;99861.08;1712549;82;22116;-44
2021/04/05 09:10:07;;;;;;;6.97;1.70;;;;;;;8.89;41.95;99859.84;1740574;81;21226;-44
2021/04/05 09:12:37;;;;;;;2.55;1.35;;;;;;;8.89;41.95;99859.84;1717036;81;21672;-45
2021/04/05 09:15:32;;;;;;;3.02;1.60;;;;;;;8.97;42.31;99857.59;1709757;82;21161;-43
2021/04/05 09:18:56;;;;;;;2.90;1.57;;;;;;;8.97;42.31;99857.59;1706841;82;21401;-45
2021/04/05 09:22:18;;;;;;;2.75;1.55;;;;;;;8.99;41.86;99854.33;1722040;82;21189;-42
2021/04/05 09:25:23;;;;;;;2.92;1.40;;;;;;;8.98;42.33;99843.80;1735468;81;21171;-42
2021/04/05 09:28:23;;;;;;;2.50;1.52;;;;;;;9.02;42.30;99842.20;1726819;81;21638;-45
2021/04/05 09:31:22;;;;;;;2.20;1.27;;;;;;;9.02;42.30;99842.20;1689560;83;21367;-43
2021/04/05 09:34:34;;;;;;;1.95;1.35;;;;;;;9.07;42.41;99841.88;1714504;82;21177;-42
2021/04/05 09:37:44;;;;;;;1.75;1.02;;;;;;;9.14;41.89;99828.59;1702213;82;21155;-47
2021/04/05 09:40:37;;;;;;;2.35;1.17;;;;;;;9.19;41.94;99830.48;1706746;82;21692;-43
2021/04/05 09:43:20;;;;;;;;;;;;;;;9.26;41.78;99831.81;1714525;81;21340;-44
2021/04/05 09:46:30;;;;;;;2.90;1.10;;;;;;;9.29;40.77;99833.42;1711152;82;20194;-44
2021/04/05 09:49:31;;;;;;;1.47;1.00;;;;;;;9.28;40.72;99827.25;1713512;82;21151;-44
2021/04/05 09:52:23;;;;;;;2.15;1.12;;;;;;;9.26;40.59;99822.98;1731978;81;21158;-44
2021/04/05 09:54:51;;;;;;;;;;;;;;;9.26;41.19;99822.50;1662342;84;21192;-44
2021/04/05 09:57:38;;;;;;;1.85;1.02;;;;;;;9.31;41.68;99820.40;1670100;83;20169;-42
2021/04/05 10:00:11;;;;;;;3.50;1.67;;;;;;;9.36;41.58;99814.79;1670308;84;21176;-42
2021/04/05 10:02:54;;;;;;;4.78;1.67;;;;;;;9.46;41.82;99822.56;1647829;85;21730;-48
2021/04/05 10:05:24;;;;;;;3.30;1.35;;;;;;;9.46;41.82;99822.56;1667991;84;21766;-45
2021/04/05 10:07:54;;;;;;;3.15;1.57;;;;;;;9.48;41.37;99812.67;1658030;84;21680;-44
2021/04/05 10:10:24;;;;;;;2.63;1.90;;;;;;;9.49;41.46;99809.05;1660317;84;21589;-47
2021/04/05 10:12:53;;;;;;;2.95;1.37;;;;;;;9.47;41.11;99815.42;1663891;84;21696;-40
2021/04/05 10:15:27;;;;;;;6.28;1.75;;;;;;;9.39;41.21;99803.94;1635695;85;21421;-45
2021/04/05 10:17:59;;;;;;;3.33;1.47;;;;;;;9.38;41.40;99804.91;1662511;84;21178;-41
2021/04/05 10:20:30;;;;;;;2.65;1.70;;;;;;;9.40;41.75;99805.67;1657586;84;21268;-40
2021/04/05 10:23:06;;;;;;;3.30;1.87;;;;;;;9.41;41.03;99801.20;1661971;84;21888;-44
2021/04/05 10:25:35;;;;;;;4.03;1.95;;;;;;;9.40;41.46;99798.14;1685648;83;21157;-43
2021/04/05 10:28:05;;;;;;;3.05;1.80;;;;;;;9.42;41.60;99791.77;1636143;85;21201;-46
2021/04/05 10:30:35;;;;;;;3.77;2.10;;;;;;;9.47;41.89;99796.80;1695541;81;21212;-46
2021/04/05 10:33:07;;;;;;;;;;;;;;;9.51;41.62;99785.01;1733061;81;21536;-45
2021/04/05 10:35:37;;;;;;;2.75;1.30;;;;;;;9.56;41.33;99786.89;1721923;81;20466;-46
2021/04/05 10:38:06;;;;;;;2.30;1.42;;;;;;;9.61;41.47;99782.13;1712594;83;21591;-46
2021/04/05 10:40:34;;;;;;;3.05;1.70;;;;;;;9.65;40.63;99782.76;1695441;83;21732;-48
2021/04/05 10:43:14;;;;;;;2.77;1.55;;;;;;;9.67;40.53;99780.37;1721948;81;21173;-43
2021/04/05 10:45:43;;;;;;;2.58;1.22;;;;;;;9.69;40.26;99775.81;1706538;82;21584;-43
2021/04/05 10:48:21;;;;;;;4.22;2.17;;;;;;;9.72;40.23;99776.93;1698893;83;21168;-42
2021/04/05 10:51:05;;;;;;;2.92;2.05;;;;;;;9.73;40.35;99770.67;1710494;82;21133;-41
2021/04/05 10:53:36;;;;;;;3.30;1.55;;;;;;;9.78;39.85;99775.70;1709294;83;21180;-42
2021/04/05 10:56:08;;;;;;;;;;;;;;;9.79;39.08;99775.21;1701881;82;21177;-42
2021/04/05 10:58:55;;;;;;;3.70;1.67;;;;;;;9.75;39.05;99767.89;1700406;82;20470;-47
2021/04/05 11:01:24;;;;;;;4.03;1.57;;;;;;;9.75;39.37;99762.11;1707204;82;21160;-46
2021/04/05 11:03:52;;;;;;;2.95;1.20;;;;;;;9.75;39.78;99755.45;1703013;82;21181;-48
2021/04/05 11:06:21;;;;;;;3.22;1.47;;;;;;;9.78;40.17;99755.73;1704875;83;21225;-48
2021/04/05 11:08:50;;;;;;;2.30;1.65;;;;;;;9.83;39.74;99758.09;1685311;83;21207;-46
2021/04/05 11:11:25;;;;;;;2.37;1.45;;;;;;;9.87;39.71;99755.58;1706225;83;21169;-45
2021/04/05 11:13:54;;;;;;;12.80;9.93;;;;;;;9.91;39.78;99754.42;1682231;82;21184;-43
2021/04/05 11:16:21;;;;;;;6.53;4.40;;;;;;;9.94;39.42;99748.41;1678295;84;21232;-46
2021/04/05 11:18:53;;;;;;;3.02;2.08;;;;;;;9.96;39.41;99747.83;1705525;83;21657;-45
2021/04/05 11:21:26;;;;;;;3.22;1.75;;;;;;;9.97;39.57;99740.20;1704765;82;21597;-45
2021/04/05 11:23:56;;;;;;;3.10;1.57;;;;;;;10.00;39.51;99739.14;1707581;82;21173;-44
2021/04/05 11:26:31;;;;;;;2.27;1.20;;;;;;;10.04;38.05;99728.66;1701383;83;21172;-45
2021/04/05 11:29:00;;;;;;;1.47;0.90;;;;;;;10.08;37.05;99729.29;1698965;82;21341;-44
2021/04/05 11:31:29;;;;;;;2.90;1.25;;;;;;;10.11;35.94;99727.29;1711134;83;21185;-46
2021/04/05 11:33:59;;;;;;;2.17;1.52;;;;;;;10.15;35.74;99716.81;1660059;83;21176;-45
2021/04/05 11:36:40;;;;;;;4.03;2.10;;;;;;;10.19;35.70;99720.95;1731025;81;21637;-46
2021/04/05 11:39:11;;;;;;;3.27;2.08;;;;;;;10.24;35.51;99717.97;1721674;81;21161;-43
2021/04/05 11:41:39;;;;;;;;;;;;;;;10.30;36.19;99714.90;1718333;82;21654;-44
2021/04/05 11:44:06;;;;;;;3.17;2.15;;;;;;;10.34;36.68;99713.74;1698451;82;20181;-43
2021/04/05 11:46:36;;;;;;;4.45;1.98;;;;;;;10.40;36.90;99711.97;1723735;82;21198;-45
2021/04/05 11:49:14;;;;;;;2.50;1.53;;;;;;;10.45;37.00;99704.14;1723563;82;21188;-47
2021/04/05 11:52:04;;;;;;;2.92;1.80;;;;;;;10.50;36.86;99703.34;1709746;82;21172;-40
2021/04/05 11:54:39;;;;;;;3.17;1.55;;;;;;;10.53;36.69;99693.78;1716714;82;21180;-41
2021/04/05 11:57:10;;;;;;;1.85;1.30;;;;;;;10.58;36.33;99686.31;1705436;82;21209;-41
2021/04/05 11:59:52;;;;;;;2.70;1.60;;;;;;;10.60;36.20;99685.73;1681378;83;21164;-50
2021/04/05 12:02:23;;;;;;;2.08;1.35;;;;;;;10.64;36.49;99677.90;1717543;82;21232;-50
2021/04/05 12:05:08;;;;;;;2.75;1.27;;;;;;;10.69;36.19;99680.23;1734731;81;21166;-50
2021/04/05 12:07:40;;;;;;;2.87;1.60;;;;;;;10.75;36.34;99667.30;1729648;81;21201;-50
2021/04/05 12:10:16;;;;;;;3.87;2.98;;;;;;;10.79;36.34;99658.61;1715038;81;21145;-52
2021/04/05 12:12:46;;;;;;;2.87;1.57;;;;;;;10.82;36.21;99663.23;1719851;81;21130;-55
2021/04/05 12:15:16;;;;;;;4.10;2.25;;;;;;;10.85;36.21;99663.98;1720290;82;21192;-53
2021/04/05 12:17:52;;;;;;;3.47;1.85;;;;;;;10.85;34.99;99656.83;1694282;82;21335;-43
2021/04/05 12:20:23;;;;;;;3.33;1.70;;;;;;;10.83;34.83;99639.62;1714550;82;21201;-45
2021/04/05 12:23:00;;;;;;;3.25;1.90;;;;;;;10.82;35.10;99646.38;1714260;82;21855;-46